sensor_id;sensor_type;location;lat;lon;timestamp;temperature;humidity
32334;DHT22;18810;53.040;8.850;2023-08-24T00:01:16;21.20;99.90
32334;DHT22;18810;53.040;8.850;2023-08-24T00:03:44;21.10;99.90
32334;DHT22;18810;53.040;8.850;2023-08-24T00:06:11;21.10;99.90
32334;DHT22;18810;53.040;8.850;2023-08-24T00:08:37;21.00;99.90
32334;DHT22;18810;53.040;8.850;2023-08-24T00:11:03;21.00;99.90
32334;DHT22;18810;53.040;8.850;2023-08-24T00:13:29;20.90;99.90
32334;DHT22;18810;53.040;8.850;2023-08-24T00:15:56;20.80;99.90
32334;DHT22;18810;53.040;8.850;2023-08-24T00:18:22;20.80;99.90
32334;DHT22;18810;53.040;8.850;2023-08-24T00:20:48;20.80;99.90
32334;DHT22;18810;53.040;8.850;2023-08-24T00:23:14;20.70;99.90
32334;DHT22;18810;53.040;8.850;2023-08-24T00:25:40;20.70;99.90
32334;DHT22;18810;53.040;8.850;2023-08-24T00:28:08;20.60;99.90
32334;DHT22;18810;53.040;8.850;2023-08-24T00:30:34;20.60;99.90
32334;DHT22;18810;53.040;8.850;2023-08-24T00:33:01;20.60;99.90
32334;DHT22;18810;53.040;8.850;2023-08-24T00:35:26;20.50;99.90
32334;DHT22;18810;53.040;8.850;2023-08-24T00:37:52;20.50;99.90
32334;DHT22;18810;53.040;8.850;2023-08-24T00:40:18;20.40;99.90
32334;DHT22;18810;53.040;8.850;2023-08-24T00:42:45;20.40;99.90
32334;DHT22;18810;53.040;8.850;2023-08-24T00:45:14;20.40;99.90
32334;DHT22;18810;53.040;8.850;2023-08-24T00:47:44;20.40;99.90
32334;DHT22;18810;53.040;8.850;2023-08-24T00:50:10;20.30;99.90
32334;DHT22;18810;53.040;8.850;2023-08-24T00:52:39;20.30;99.90
32334;DHT22;18810;53.040;8.850;2023-08-24T00:55:06;20.30;99.90
32334;DHT22;18810;53.040;8.850;2023-08-24T00:57:33;20.20;99.90
32334;DHT22;18810;53.040;8.850;2023-08-24T01:00:00;20.10;99.90
32334;DHT22;18810;53.040;8.850;2023-08-24T01:02:27;20.00;99.90
32334;DHT22;18810;53.040;8.850;2023-08-24T01:04:53;20.00;99.90
32334;DHT22;18810;53.040;8.850;2023-08-24T01:07:19;20.00;99.90
32334;DHT22;18810;53.040;8.850;2023-08-24T01:09:46;20.00;99.90
32334;DHT22;18810;53.040;8.850;2023-08-24T01:15:29;19.90;99.90
32334;DHT22;18810;53.040;8.850;2023-08-24T01:18:03;19.80;99.90
32334;DHT22;18810;53.040;8.850;2023-08-24T01:20:30;19.80;99.90
32334;DHT22;18810;53.040;8.850;2023-08-24T01:23:07;19.80;99.90
32334;DHT22;18810;53.040;8.850;2023-08-24T01:25:53;19.80;99.90
32334;DHT22;18810;53.040;8.850;2023-08-24T01:28:20;19.80;99.90
32334;DHT22;18810;53.040;8.850;2023-08-24T01:30:47;19.70;99.90
32334;DHT22;18810;53.040;8.850;2023-08-24T01:33:13;19.70;99.90
32334;DHT22;18810;53.040;8.850;2023-08-24T01:35:40;19.70;99.90
32334;DHT22;18810;53.040;8.850;2023-08-24T01:38:07;19.70;99.90
32334;DHT22;18810;53.040;8.850;2023-08-24T01:40:58;19.70;99.90
32334;DHT22;18810;53.040;8.850;2023-08-24T01:43:31;19.70;99.90
32334;DHT22;18810;53.040;8.850;2023-08-24T01:46:00;19.70;99.90
32334;DHT22;18810;53.040;8.850;2023-08-24T01:48:29;19.50;99.90
32334;DHT22;18810;53.040;8.850;2023-08-24T01:50:57;19.50;99.90
32334;DHT22;18810;53.040;8.850;2023-08-24T01:53:23;19.50;99.90
32334;DHT22;18810;53.040;8.850;2023-08-24T01:55:49;19.50;99.90
32334;DHT22;18810;53.040;8.850;2023-08-24T01:58:15;19.50;99.90
32334;DHT22;18810;53.040;8.850;2023-08-24T02:00:40;19.40;99.90
32334;DHT22;18810;53.040;8.850;2023-08-24T02:03:06;19.40;99.90
32334;DHT22;18810;53.040;8.850;2023-08-24T02:05:32;19.40;99.90
32334;DHT22;18810;53.040;8.850;2023-08-24T02:07:58;19.40;99.90
32334;DHT22;18810;53.040;8.850;2023-08-24T02:10:25;19.40;99.90
32334;DHT22;18810;53.040;8.850;2023-08-24T02:12:51;19.30;99.90
32334;DHT22;18810;53.040;8.850;2023-08-24T02:15:17;19.20;99.90
32334;DHT22;18810;53.040;8.850;2023-08-24T02:17:43;19.20;99.90
32334;DHT22;18810;53.040;8.850;2023-08-24T02:20:09;19.10;99.90
32334;DHT22;18810;53.040;8.850;2023-08-24T02:22:37;19.10;99.90
32334;DHT22;18810;53.040;8.850;2023-08-24T02:25:04;19.10;99.90
32334;DHT22;18810;53.040;8.850;2023-08-24T02:27:31;19.00;99.90
32334;DHT22;18810;53.040;8.850;2023-08-24T02:29:57;19.00;99.90
32334;DHT22;18810;53.040;8.850;2023-08-24T02:32:22;18.90;99.90
32334;DHT22;18810;53.040;8.850;2023-08-24T02:34:48;18.90;99.90
32334;DHT22;18810;53.040;8.850;2023-08-24T02:37:14;18.90;99.90
32334;DHT22;18810;53.040;8.850;2023-08-24T02:39:39;18.90;99.90
32334;DHT22;18810;53.040;8.850;2023-08-24T02:42:05;18.90;99.90
32334;DHT22;18810;53.040;8.850;2023-08-24T02:44:31;18.80;99.90
32334;DHT22;18810;53.040;8.850;2023-08-24T02:46:56;18.80;99.90
32334;DHT22;18810;53.040;8.850;2023-08-24T02:49:22;18.80;99.90
32334;DHT22;18810;53.040;8.850;2023-08-24T02:51:48;18.70;99.90
32334;DHT22;18810;53.040;8.850;2023-08-24T02:54:14;18.70;99.90
32334;DHT22;18810;53.040;8.850;2023-08-24T02:56:40;18.70;99.90
32334;DHT22;18810;53.040;8.850;2023-08-24T02:59:06;18.70;99.90
32334;DHT22;18810;53.040;8.850;2023-08-24T03:01:32;18.60;99.90
32334;DHT22;18810;53.040;8.850;2023-08-24T03:03:57;18.70;99.90
32334;DHT22;18810;53.040;8.850;2023-08-24T03:06:23;18.70;99.90
32334;DHT22;18810;53.040;8.850;2023-08-24T03:08:49;18.90;99.90
32334;DHT22;18810;53.040;8.850;2023-08-24T03:11:15;18.80;99.90
32334;DHT22;18810;53.040;8.850;2023-08-24T03:13:41;18.80;99.90
32334;DHT22;18810;53.040;8.850;2023-08-24T03:16:07;18.80;99.90
32334;DHT22;18810;53.040;8.850;2023-08-24T03:18:34;18.80;99.90
32334;DHT22;18810;53.040;8.850;2023-08-24T03:21:00;18.80;99.90
32334;DHT22;18810;53.040;8.850;2023-08-24T03:23:26;18.90;99.90
32334;DHT22;18810;53.040;8.850;2023-08-24T03:25:52;18.90;99.90
32334;DHT22;18810;53.040;8.850;2023-08-24T03:28:17;18.90;99.90
32334;DHT22;18810;53.040;8.850;2023-08-24T03:30:51;19.00;99.90
32334;DHT22;18810;53.040;8.850;2023-08-24T03:33:17;19.00;99.90
32334;DHT22;18810;53.040;8.850;2023-08-24T03:35:43;19.00;99.90
32334;DHT22;18810;53.040;8.850;2023-08-24T03:38:09;19.00;99.90
32334;DHT22;18810;53.040;8.850;2023-08-24T03:40:35;19.00;99.90
32334;DHT22;18810;53.040;8.850;2023-08-24T03:43:04;19.00;99.90
32334;DHT22;18810;53.040;8.850;2023-08-24T03:45:30;18.90;99.90
32334;DHT22;18810;53.040;8.850;2023-08-24T03:47:56;18.80;99.90
32334;DHT22;18810;53.040;8.850;2023-08-24T03:50:21;18.90;99.90
32334;DHT22;18810;53.040;8.850;2023-08-24T03:52:51;18.90;99.90
32334;DHT22;18810;53.040;8.850;2023-08-24T03:55:16;19.00;99.90
32334;DHT22;18810;53.040;8.850;2023-08-24T03:57:42;19.10;99.90
32334;DHT22;18810;53.040;8.850;2023-08-24T04:00:08;19.10;99.90
32334;DHT22;18810;53.040;8.850;2023-08-24T04:02:46;19.10;99.90
32334;DHT22;18810;53.040;8.850;2023-08-24T04:05:12;19.10;99.90
32334;DHT22;18810;53.040;8.850;2023-08-24T04:07:38;19.10;99.90
32334;DHT22;18810;53.040;8.850;2023-08-24T04:10:05;19.00;99.90
32334;DHT22;18810;53.040;8.850;2023-08-24T04:12:32;18.90;99.90
32334;DHT22;18810;53.040;8.850;2023-08-24T04:14:58;18.90;99.90
32334;DHT22;18810;53.040;8.850;2023-08-24T04:17:24;18.80;99.90
32334;DHT22;18810;53.040;8.850;2023-08-24T04:19:50;18.70;99.90
32334;DHT22;18810;53.040;8.850;2023-08-24T04:22:16;18.70;99.90
32334;DHT22;18810;53.040;8.850;2023-08-24T04:24:42;18.70;99.90
32334;DHT22;18810;53.040;8.850;2023-08-24T04:27:07;18.70;99.90
32334;DHT22;18810;53.040;8.850;2023-08-24T04:29:33;18.70;99.90
32334;DHT22;18810;53.040;8.850;2023-08-24T04:31:59;18.80;99.90
32334;DHT22;18810;53.040;8.850;2023-08-24T04:34:24;18.80;99.90
32334;DHT22;18810;53.040;8.850;2023-08-24T04:36:50;18.80;99.90
32334;DHT22;18810;53.040;8.850;2023-08-24T04:39:16;18.80;99.90
32334;DHT22;18810;53.040;8.850;2023-08-24T04:41:44;18.90;99.90
32334;DHT22;18810;53.040;8.850;2023-08-24T04:44:10;18.90;99.90
32334;DHT22;18810;53.040;8.850;2023-08-24T04:46:35;18.90;99.90
32334;DHT22;18810;53.040;8.850;2023-08-24T04:49:01;18.90;99.90
32334;DHT22;18810;53.040;8.850;2023-08-24T04:51:28;18.90;99.90
32334;DHT22;18810;53.040;8.850;2023-08-24T04:53:54;18.90;99.90
32334;DHT22;18810;53.040;8.850;2023-08-24T04:56:20;18.90;99.90
32334;DHT22;18810;53.040;8.850;2023-08-24T04:58:55;19.10;99.90
32334;DHT22;18810;53.040;8.850;2023-08-24T05:01:23;19.00;99.90
32334;DHT22;18810;53.040;8.850;2023-08-24T05:03:48;19.00;99.90
32334;DHT22;18810;53.040;8.850;2023-08-24T05:06:14;19.00;99.90
32334;DHT22;18810;53.040;8.850;2023-08-24T05:08:40;19.00;99.90
32334;DHT22;18810;53.040;8.850;2023-08-24T05:11:21;19.00;99.90
32334;DHT22;18810;53.040;8.850;2023-08-24T05:13:47;19.00;99.90
32334;DHT22;18810;53.040;8.850;2023-08-24T05:16:13;19.00;99.90
32334;DHT22;18810;53.040;8.850;2023-08-24T05:18:39;19.00;99.90
32334;DHT22;18810;53.040;8.850;2023-08-24T05:21:05;18.90;99.90
32334;DHT22;18810;53.040;8.850;2023-08-24T05:23:32;18.80;99.90
32334;DHT22;18810;53.040;8.850;2023-08-24T05:25:59;18.70;99.90
32334;DHT22;18810;53.040;8.850;2023-08-24T05:28:26;18.70;99.90
32334;DHT22;18810;53.040;8.850;2023-08-24T05:30:52;18.70;99.90
32334;DHT22;18810;53.040;8.850;2023-08-24T05:33:18;18.70;99.90
32334;DHT22;18810;53.040;8.850;2023-08-24T05:35:44;18.90;99.90
32334;DHT22;18810;53.040;8.850;2023-08-24T05:38:10;19.00;99.90
32334;DHT22;18810;53.040;8.850;2023-08-24T05:40:36;19.30;99.90
32334;DHT22;18810;53.040;8.850;2023-08-24T05:43:03;19.70;99.90
32334;DHT22;18810;53.040;8.850;2023-08-24T05:45:28;20.00;99.90
32334;DHT22;18810;53.040;8.850;2023-08-24T05:47:54;20.20;99.90
32334;DHT22;18810;53.040;8.850;2023-08-24T05:50:20;20.30;99.90
32334;DHT22;18810;53.040;8.850;2023-08-24T05:52:46;20.20;99.90
32334;DHT22;18810;53.040;8.850;2023-08-24T05:55:11;20.10;99.90
32334;DHT22;18810;53.040;8.850;2023-08-24T05:57:37;19.90;99.90
32334;DHT22;18810;53.040;8.850;2023-08-24T06:00:04;19.80;99.90
32334;DHT22;18810;53.040;8.850;2023-08-24T06:02:35;20.60;99.90
32334;DHT22;18810;53.040;8.850;2023-08-24T06:05:01;22.60;99.90
32334;DHT22;18810;53.040;8.850;2023-08-24T06:07:28;24.20;99.90
32334;DHT22;18810;53.040;8.850;2023-08-24T06:09:54;25.00;99.90
32334;DHT22;18810;53.040;8.850;2023-08-24T06:12:19;25.20;99.90
32334;DHT22;18810;53.040;8.850;2023-08-24T06:14:45;25.00;99.90
32334;DHT22;18810;53.040;8.850;2023-08-24T06:17:11;24.50;99.90
32334;DHT22;18810;53.040;8.850;2023-08-24T06:19:36;23.80;99.90
32334;DHT22;18810;53.040;8.850;2023-08-24T06:22:02;23.20;99.90
32334;DHT22;18810;53.040;8.850;2023-08-24T06:24:28;22.70;99.90
32334;DHT22;18810;53.040;8.850;2023-08-24T06:26:53;22.30;99.90
32334;DHT22;18810;53.040;8.850;2023-08-24T06:29:19;22.10;99.90
32334;DHT22;18810;53.040;8.850;2023-08-24T06:31:45;22.10;99.90
32334;DHT22;18810;53.040;8.850;2023-08-24T06:34:11;22.20;99.90
32334;DHT22;18810;53.040;8.850;2023-08-24T06:36:36;22.60;99.90
32334;DHT22;18810;53.040;8.850;2023-08-24T06:39:02;23.90;99.90
32334;DHT22;18810;53.040;8.850;2023-08-24T06:41:33;24.00;99.90
32334;DHT22;18810;53.040;8.850;2023-08-24T06:43:59;24.80;99.90
32334;DHT22;18810;53.040;8.850;2023-08-24T06:46:25;25.60;99.90
32334;DHT22;18810;53.040;8.850;2023-08-24T06:48:50;26.30;99.90
32334;DHT22;18810;53.040;8.850;2023-08-24T06:51:16;26.20;99.90
32334;DHT22;18810;53.040;8.850;2023-08-24T06:53:42;26.60;99.90
32334;DHT22;18810;53.040;8.850;2023-08-24T06:56:08;26.70;99.90
32334;DHT22;18810;53.040;8.850;2023-08-24T06:58:34;26.80;99.90
32334;DHT22;18810;53.040;8.850;2023-08-24T07:01:00;27.00;99.90
32334;DHT22;18810;53.040;8.850;2023-08-24T07:03:26;27.00;99.90
32334;DHT22;18810;53.040;8.850;2023-08-24T07:05:52;27.00;99.90
32334;DHT22;18810;53.040;8.850;2023-08-24T07:08:18;26.50;99.90
32334;DHT22;18810;53.040;8.850;2023-08-24T07:10:43;26.30;99.90
32334;DHT22;18810;53.040;8.850;2023-08-24T07:13:09;26.30;99.90
32334;DHT22;18810;53.040;8.850;2023-08-24T07:15:35;26.30;99.90
32334;DHT22;18810;53.040;8.850;2023-08-24T07:18:02;26.30;99.90
32334;DHT22;18810;53.040;8.850;2023-08-24T07:20:28;26.70;99.90
32334;DHT22;18810;53.040;8.850;2023-08-24T07:22:54;26.70;99.90
32334;DHT22;18810;53.040;8.850;2023-08-24T07:25:19;26.50;99.90
32334;DHT22;18810;53.040;8.850;2023-08-24T07:27:48;26.50;99.90
32334;DHT22;18810;53.040;8.850;2023-08-24T07:30:14;26.70;99.90
32334;DHT22;18810;53.040;8.850;2023-08-24T07:32:39;26.50;99.90
32334;DHT22;18810;53.040;8.850;2023-08-24T07:35:07;26.40;99.90
32334;DHT22;18810;53.040;8.850;2023-08-24T07:37:32;26.50;99.90
32334;DHT22;18810;53.040;8.850;2023-08-24T07:39:58;26.50;99.90
32334;DHT22;18810;53.040;8.850;2023-08-24T07:42:24;26.40;99.90
32334;DHT22;18810;53.040;8.850;2023-08-24T07:44:50;26.40;99.90
32334;DHT22;18810;53.040;8.850;2023-08-24T07:47:16;26.40;99.90
32334;DHT22;18810;53.040;8.850;2023-08-24T07:49:42;26.60;99.90
32334;DHT22;18810;53.040;8.850;2023-08-24T07:52:13;26.60;99.90
32334;DHT22;18810;53.040;8.850;2023-08-24T07:54:39;26.50;99.90
32334;DHT22;18810;53.040;8.850;2023-08-24T07:57:05;26.10;99.90
32334;DHT22;18810;53.040;8.850;2023-08-24T07:59:31;26.00;99.90
32334;DHT22;18810;53.040;8.850;2023-08-24T08:01:57;26.10;99.90
32334;DHT22;18810;53.040;8.850;2023-08-24T08:04:23;26.20;99.90
32334;DHT22;18810;53.040;8.850;2023-08-24T08:06:48;26.50;99.90
32334;DHT22;18810;53.040;8.850;2023-08-24T08:09:14;26.80;99.90
32334;DHT22;18810;53.040;8.850;2023-08-24T08:11:40;26.80;99.90
32334;DHT22;18810;53.040;8.850;2023-08-24T08:14:05;26.90;99.90
32334;DHT22;18810;53.040;8.850;2023-08-24T08:16:31;27.00;99.90
32334;DHT22;18810;53.040;8.850;2023-08-24T08:18:57;26.90;99.90
32334;DHT22;18810;53.040;8.850;2023-08-24T08:21:22;27.10;99.90
32334;DHT22;18810;53.040;8.850;2023-08-24T08:23:49;27.20;99.90
32334;DHT22;18810;53.040;8.850;2023-08-24T08:26:16;27.30;99.90
32334;DHT22;18810;53.040;8.850;2023-08-24T08:28:42;27.20;99.90
32334;DHT22;18810;53.040;8.850;2023-08-24T08:31:08;27.30;99.90
32334;DHT22;18810;53.040;8.850;2023-08-24T08:33:33;27.40;99.90
32334;DHT22;18810;53.040;8.850;2023-08-24T08:35:59;27.70;99.90
32334;DHT22;18810;53.040;8.850;2023-08-24T08:38:25;27.80;99.90
32334;DHT22;18810;53.040;8.850;2023-08-24T08:40:56;27.90;99.70
32334;DHT22;18810;53.040;8.850;2023-08-24T08:43:22;28.00;99.80
32334;DHT22;18810;53.040;8.850;2023-08-24T08:45:52;28.00;99.80
32334;DHT22;18810;53.040;8.850;2023-08-24T08:48:20;27.70;99.90
32334;DHT22;18810;53.040;8.850;2023-08-24T08:50:50;27.80;99.90
32334;DHT22;18810;53.040;8.850;2023-08-24T08:53:16;28.10;99.90
32334;DHT22;18810;53.040;8.850;2023-08-24T08:55:44;28.40;99.40
32334;DHT22;18810;53.040;8.850;2023-08-24T08:58:10;28.70;98.70
32334;DHT22;18810;53.040;8.850;2023-08-24T09:00:37;29.00;98.20
32334;DHT22;18810;53.040;8.850;2023-08-24T09:03:03;29.10;98.10
32334;DHT22;18810;53.040;8.850;2023-08-24T09:05:31;29.30;98.30
32334;DHT22;18810;53.040;8.850;2023-08-24T09:07:57;29.70;97.20
32334;DHT22;18810;53.040;8.850;2023-08-24T09:10:25;29.40;96.90
32334;DHT22;18810;53.040;8.850;2023-08-24T09:12:51;29.60;96.90
32334;DHT22;18810;53.040;8.850;2023-08-24T09:15:27;29.90;96.40
32334;DHT22;18810;53.040;8.850;2023-08-24T09:17:54;30.30;95.80
32334;DHT22;18810;53.040;8.850;2023-08-24T09:20:27;30.90;95.50
32334;DHT22;18810;53.040;8.850;2023-08-24T09:22:54;31.20;94.60
32334;DHT22;18810;53.040;8.850;2023-08-24T09:25:23;30.90;94.90
32334;DHT22;18810;53.040;8.850;2023-08-24T09:28:01;30.80;95.00
32334;DHT22;18810;53.040;8.850;2023-08-24T09:30:35;31.20;95.10
32334;DHT22;18810;53.040;8.850;2023-08-24T09:33:09;31.70;94.10
32334;DHT22;18810;53.040;8.850;2023-08-24T09:35:38;31.60;94.00
32334;DHT22;18810;53.040;8.850;2023-08-24T09:38:20;31.50;93.70
32334;DHT22;18810;53.040;8.850;2023-08-24T09:40:46;31.80;93.80
32334;DHT22;18810;53.040;8.850;2023-08-24T09:43:13;31.80;93.10
32334;DHT22;18810;53.040;8.850;2023-08-24T09:45:51;31.60;93.30
32334;DHT22;18810;53.040;8.850;2023-08-24T09:48:17;31.50;93.20
32334;DHT22;18810;53.040;8.850;2023-08-24T09:50:44;31.80;93.10
32334;DHT22;18810;53.040;8.850;2023-08-24T09:53:19;32.00;92.60
32334;DHT22;18810;53.040;8.850;2023-08-24T09:55:49;31.90;92.60
32334;DHT22;18810;53.040;8.850;2023-08-24T09:58:19;32.10;92.40
32334;DHT22;18810;53.040;8.850;2023-08-24T10:00:46;32.40;91.50
32334;DHT22;18810;53.040;8.850;2023-08-24T10:03:24;32.40;91.70
32334;DHT22;18810;53.040;8.850;2023-08-24T10:05:52;32.60;91.50
32334;DHT22;18810;53.040;8.850;2023-08-24T10:08:24;32.10;91.20
32334;DHT22;18810;53.040;8.850;2023-08-24T10:10:56;31.90;91.90
32334;DHT22;18810;53.040;8.850;2023-08-24T10:16:13;33.10;90.60
32334;DHT22;18810;53.040;8.850;2023-08-24T10:18:40;33.50;90.00
32334;DHT22;18810;53.040;8.850;2023-08-24T10:21:07;34.10;89.80
32334;DHT22;18810;53.040;8.850;2023-08-24T10:23:34;34.80;86.90
32334;DHT22;18810;53.040;8.850;2023-08-24T10:26:02;35.30;86.20
32334;DHT22;18810;53.040;8.850;2023-08-24T10:28:29;35.10;85.70
32334;DHT22;18810;53.040;8.850;2023-08-24T10:30:57;35.00;85.00
32334;DHT22;18810;53.040;8.850;2023-08-24T10:33:23;35.30;83.20
32334;DHT22;18810;53.040;8.850;2023-08-24T10:35:49;35.00;82.90
32334;DHT22;18810;53.040;8.850;2023-08-24T10:40:51;35.60;82.10
32334;DHT22;18810;53.040;8.850;2023-08-24T10:43:17;36.10;80.50
32334;DHT22;18810;53.040;8.850;2023-08-24T10:45:58;36.40;79.90
32334;DHT22;18810;53.040;8.850;2023-08-24T10:48:26;36.90;77.50
32334;DHT22;18810;53.040;8.850;2023-08-24T10:53:57;37.00;76.70
32334;DHT22;18810;53.040;8.850;2023-08-24T10:56:36;36.60;76.30
32334;DHT22;18810;53.040;8.850;2023-08-24T10:59:11;36.40;77.20
32334;DHT22;18810;53.040;8.850;2023-08-24T11:01:39;36.70;76.70
32334;DHT22;18810;53.040;8.850;2023-08-24T11:04:06;36.90;76.00
32334;DHT22;18810;53.040;8.850;2023-08-24T11:06:50;37.00;75.20
32334;DHT22;18810;53.040;8.850;2023-08-24T11:09:16;36.80;74.50
32334;DHT22;18810;53.040;8.850;2023-08-24T11:12:01;36.40;74.80
32334;DHT22;18810;53.040;8.850;2023-08-24T11:14:29;36.30;75.40
32334;DHT22;18810;53.040;8.850;2023-08-24T11:17:01;36.40;75.50
32334;DHT22;18810;53.040;8.850;2023-08-24T11:19:52;36.70;74.90
32334;DHT22;18810;53.040;8.850;2023-08-24T11:22:18;36.70;75.00
32334;DHT22;18810;53.040;8.850;2023-08-24T11:24:47;36.60;75.20
32334;DHT22;18810;53.040;8.850;2023-08-24T11:27:12;36.40;75.00
32334;DHT22;18810;53.040;8.850;2023-08-24T11:29:38;36.40;74.70
32334;DHT22;18810;53.040;8.850;2023-08-24T11:32:04;36.30;75.40
32334;DHT22;18810;53.040;8.850;2023-08-24T11:34:30;36.00;75.20
32334;DHT22;18810;53.040;8.850;2023-08-24T11:36:57;35.70;76.50
32334;DHT22;18810;53.040;8.850;2023-08-24T11:39:23;35.60;76.50
32334;DHT22;18810;53.040;8.850;2023-08-24T11:42:02;35.90;75.50
32334;DHT22;18810;53.040;8.850;2023-08-24T11:44:29;36.30;75.70
32334;DHT22;18810;53.040;8.850;2023-08-24T11:46:59;36.10;74.60
32334;DHT22;18810;53.040;8.850;2023-08-24T11:49:25;35.50;75.80
32334;DHT22;18810;53.040;8.850;2023-08-24T11:51:51;35.40;76.00
32334;DHT22;18810;53.040;8.850;2023-08-24T11:54:19;36.20;75.00
32334;DHT22;18810;53.040;8.850;2023-08-24T11:56:44;36.70;73.30
32334;DHT22;18810;53.040;8.850;2023-08-24T11:59:16;36.90;73.40
32334;DHT22;18810;53.040;8.850;2023-08-24T12:01:42;36.80;73.00
32334;DHT22;18810;53.040;8.850;2023-08-24T12:04:08;36.60;74.10
32334;DHT22;18810;53.040;8.850;2023-08-24T12:06:34;36.60;73.60
32334;DHT22;18810;53.040;8.850;2023-08-24T12:09:00;36.80;73.10
32334;DHT22;18810;53.040;8.850;2023-08-24T12:11:26;36.50;72.90
32334;DHT22;18810;53.040;8.850;2023-08-24T12:13:55;36.40;73.30
32334;DHT22;18810;53.040;8.850;2023-08-24T12:16:22;35.80;72.90
32334;DHT22;18810;53.040;8.850;2023-08-24T12:18:59;35.10;74.20
32334;DHT22;18810;53.040;8.850;2023-08-24T12:21:26;35.10;74.80
32334;DHT22;18810;53.040;8.850;2023-08-24T12:24:05;35.10;75.10
32334;DHT22;18810;53.040;8.850;2023-08-24T12:26:32;34.80;75.70
32334;DHT22;18810;53.040;8.850;2023-08-24T12:29:06;34.50;76.10
32334;DHT22;18810;53.040;8.850;2023-08-24T12:31:32;34.50;76.20
32334;DHT22;18810;53.040;8.850;2023-08-24T12:34:00;34.40;76.90
32334;DHT22;18810;53.040;8.850;2023-08-24T12:36:26;34.60;77.50
32334;DHT22;18810;53.040;8.850;2023-08-24T12:38:52;34.70;76.90
32334;DHT22;18810;53.040;8.850;2023-08-24T12:41:18;34.50;76.60
32334;DHT22;18810;53.040;8.850;2023-08-24T12:43:43;34.70;77.00
32334;DHT22;18810;53.040;8.850;2023-08-24T12:46:09;34.60;76.10
32334;DHT22;18810;53.040;8.850;2023-08-24T12:48:35;34.80;75.00
32334;DHT22;18810;53.040;8.850;2023-08-24T12:51:00;34.70;75.70
32334;DHT22;18810;53.040;8.850;2023-08-24T12:53:26;34.70;76.90
32334;DHT22;18810;53.040;8.850;2023-08-24T12:55:52;34.70;76.60
32334;DHT22;18810;53.040;8.850;2023-08-24T12:58:17;34.80;77.00
32334;DHT22;18810;53.040;8.850;2023-08-24T13:00:45;34.90;76.00
32334;DHT22;18810;53.040;8.850;2023-08-24T13:03:11;35.00;76.20
32334;DHT22;18810;53.040;8.850;2023-08-24T13:05:37;35.30;75.90
32334;DHT22;18810;53.040;8.850;2023-08-24T13:08:03;35.40;74.90
32334;DHT22;18810;53.040;8.850;2023-08-24T13:10:28;35.60;73.50
32334;DHT22;18810;53.040;8.850;2023-08-24T13:12:54;35.50;73.90
32334;DHT22;18810;53.040;8.850;2023-08-24T13:15:21;35.80;73.30
32334;DHT22;18810;53.040;8.850;2023-08-24T13:17:47;35.80;74.30
32334;DHT22;18810;53.040;8.850;2023-08-24T13:20:13;35.70;74.60
32334;DHT22;18810;53.040;8.850;2023-08-24T13:22:38;35.60;74.60
32334;DHT22;18810;53.040;8.850;2023-08-24T13:25:04;35.70;73.80
32334;DHT22;18810;53.040;8.850;2023-08-24T13:27:30;36.30;73.00
32334;DHT22;18810;53.040;8.850;2023-08-24T13:30:00;37.30;72.30
32334;DHT22;18810;53.040;8.850;2023-08-24T13:32:26;37.30;70.40
32334;DHT22;18810;53.040;8.850;2023-08-24T13:34:51;36.80;71.30
32334;DHT22;18810;53.040;8.850;2023-08-24T13:37:20;36.10;71.20
32334;DHT22;18810;53.040;8.850;2023-08-24T13:39:46;35.60;72.80
32334;DHT22;18810;53.040;8.850;2023-08-24T13:42:12;35.30;74.40
32334;DHT22;18810;53.040;8.850;2023-08-24T13:44:39;35.60;74.00
32334;DHT22;18810;53.040;8.850;2023-08-24T13:47:04;36.10;71.30
32334;DHT22;18810;53.040;8.850;2023-08-24T13:49:30;36.60;71.30
32334;DHT22;18810;53.040;8.850;2023-08-24T13:51:56;36.70;70.10
32334;DHT22;18810;53.040;8.850;2023-08-24T13:54:21;36.20;69.00
32334;DHT22;18810;53.040;8.850;2023-08-24T13:56:48;36.20;68.60
32334;DHT22;18810;53.040;8.850;2023-08-24T13:59:14;36.10;69.20
32334;DHT22;18810;53.040;8.850;2023-08-24T14:01:41;35.80;69.30
32334;DHT22;18810;53.040;8.850;2023-08-24T14:04:07;35.10;70.10
32334;DHT22;18810;53.040;8.850;2023-08-24T14:06:34;35.10;73.00
32334;DHT22;18810;53.040;8.850;2023-08-24T14:09:03;35.10;71.70
32334;DHT22;18810;53.040;8.850;2023-08-24T14:11:30;35.20;72.80
32334;DHT22;18810;53.040;8.850;2023-08-24T14:13:56;35.30;71.60
32334;DHT22;18810;53.040;8.850;2023-08-24T14:16:22;35.60;71.00
32334;DHT22;18810;53.040;8.850;2023-08-24T14:18:48;35.70;70.40
32334;DHT22;18810;53.040;8.850;2023-08-24T14:21:15;36.00;70.70
32334;DHT22;18810;53.040;8.850;2023-08-24T14:23:41;36.40;70.10
32334;DHT22;18810;53.040;8.850;2023-08-24T14:26:09;36.30;69.80
32334;DHT22;18810;53.040;8.850;2023-08-24T14:28:52;35.80;71.00
32334;DHT22;18810;53.040;8.850;2023-08-24T14:31:22;35.10;71.70
32334;DHT22;18810;53.040;8.850;2023-08-24T14:33:49;34.70;72.20
32334;DHT22;18810;53.040;8.850;2023-08-24T14:36:16;34.50;72.60
32334;DHT22;18810;53.040;8.850;2023-08-24T14:38:42;34.30;73.20
32334;DHT22;18810;53.040;8.850;2023-08-24T14:41:09;33.70;75.50
32334;DHT22;18810;53.040;8.850;2023-08-24T14:43:35;33.50;76.00
32334;DHT22;18810;53.040;8.850;2023-08-24T14:46:01;33.30;76.10
32334;DHT22;18810;53.040;8.850;2023-08-24T14:48:28;33.30;75.50
32334;DHT22;18810;53.040;8.850;2023-08-24T14:50:54;33.30;76.80
32334;DHT22;18810;53.040;8.850;2023-08-24T14:53:20;33.40;76.70
32334;DHT22;18810;53.040;8.850;2023-08-24T14:55:45;33.30;76.40
32334;DHT22;18810;53.040;8.850;2023-08-24T14:58:11;33.50;76.30
32334;DHT22;18810;53.040;8.850;2023-08-24T15:00:37;33.70;76.40
32334;DHT22;18810;53.040;8.850;2023-08-24T15:03:03;33.70;75.30
32334;DHT22;18810;53.040;8.850;2023-08-24T15:05:29;33.90;75.10
32334;DHT22;18810;53.040;8.850;2023-08-24T15:07:54;33.90;75.10
32334;DHT22;18810;53.040;8.850;2023-08-24T15:10:21;33.80;74.90
32334;DHT22;18810;53.040;8.850;2023-08-24T15:12:47;34.00;74.10
32334;DHT22;18810;53.040;8.850;2023-08-24T15:15:13;33.70;73.80
32334;DHT22;18810;53.040;8.850;2023-08-24T15:17:43;33.70;74.50
32334;DHT22;18810;53.040;8.850;2023-08-24T15:20:10;33.80;74.70
32334;DHT22;18810;53.040;8.850;2023-08-24T15:22:38;33.90;74.30
32334;DHT22;18810;53.040;8.850;2023-08-24T15:25:05;33.80;76.40
32334;DHT22;18810;53.040;8.850;2023-08-24T15:27:30;33.60;76.00
32334;DHT22;18810;53.040;8.850;2023-08-24T15:29:56;33.30;76.20
32334;DHT22;18810;53.040;8.850;2023-08-24T15:32:22;33.00;77.40
32334;DHT22;18810;53.040;8.850;2023-08-24T15:34:48;32.60;77.60
32334;DHT22;18810;53.040;8.850;2023-08-24T15:37:15;32.50;76.80
32334;DHT22;18810;53.040;8.850;2023-08-24T15:39:40;32.30;78.20
32334;DHT22;18810;53.040;8.850;2023-08-24T15:42:07;32.10;78.10